createdAt,value
2022-09-30T00:00:48.164Z,3.90
2022-09-30T00:03:37.135Z,7.77
2022-09-30T00:06:24.676Z,4.90
2022-09-30T00:09:13.056Z,6.53
2022-09-30T00:11:59.985Z,4.70
2022-09-30T00:14:46.784Z,6.20
2022-09-30T00:17:33.709Z,4.67
2022-09-30T00:20:21.922Z,5.40
2022-09-30T00:23:08.640Z,6.00
2022-09-30T00:25:59.908Z,5.17
2022-09-30T00:28:50.324Z,4.63
2022-09-30T00:31:37.276Z,5.57
2022-09-30T00:34:24.271Z,5.70
2022-09-30T00:37:15.220Z,6.30
2022-09-30T00:40:02.690Z,4.93
2022-09-30T00:42:49.485Z,5.80
2022-09-30T00:45:36.017Z,7.30
2022-09-30T00:48:29.369Z,6.13
2022-09-30T00:51:16.551Z,5.90
2022-09-30T00:54:08.031Z,5.40
2022-09-30T00:57:00.366Z,6.93
2022-09-30T00:59:49.411Z,6.53
2022-09-30T01:02:36.511Z,5.87
2022-09-30T01:05:25.437Z,6.70
2022-09-30T01:08:12.594Z,8.87
2022-09-30T01:11:04.518Z,14.57
2022-09-30T01:13:58.317Z,6.07
2022-09-30T01:16:54.553Z,4.73
2022-09-30T01:20:08.608Z,6.03
2022-09-30T01:23:07.555Z,4.83
2022-09-30T01:26:30.133Z,7.57
2022-09-30T01:29:45.201Z,6.60
2022-09-30T01:32:49.190Z,5.50
2022-09-30T01:35:55.521Z,6.10
2022-09-30T01:38:49.715Z,8.97
2022-09-30T01:41:45.468Z,6.33
2022-09-30T01:44:39.484Z,4.57
2022-09-30T01:47:30.359Z,7.03
2022-09-30T01:50:23.230Z,7.13
2022-09-30T01:53:16.175Z,6.07
2022-09-30T01:56:09.977Z,5.30
2022-09-30T01:59:02.660Z,5.67
2022-09-30T02:01:54.214Z,6.97
2022-09-30T02:04:46.439Z,6.20
2022-09-30T02:07:39.418Z,5.57
2022-09-30T02:10:29.960Z,5.53
2022-09-30T02:13:20.433Z,5.30
2022-09-30T02:16:13.882Z,6.47
2022-09-30T02:19:09.814Z,5.13
2022-09-30T02:22:01.826Z,6.40
2022-09-30T02:24:55.689Z,7.90
2022-09-30T02:27:48.309Z,9.90
2022-09-30T02:30:37.077Z,5.47
2022-09-30T02:33:30.820Z,6.97
2022-09-30T02:36:24.360Z,6.07
2022-09-30T02:39:17.582Z,4.97
2022-09-30T02:42:12.744Z,8.57
2022-09-30T02:45:02.799Z,9.20
2022-09-30T02:48:06.165Z,9.13
2022-09-30T02:50:55.994Z,7.17
2022-09-30T02:53:50.552Z,6.67
2022-09-30T02:56:48.914Z,6.00
2022-09-30T02:59:37.394Z,8.80
2022-09-30T03:02:24.805Z,7.03
2022-09-30T03:05:12.743Z,6.90
2022-09-30T03:07:59.779Z,7.37
2022-09-30T03:10:50.876Z,7.30
2022-09-30T03:14:09.760Z,6.00
2022-09-30T03:17:23.624Z,7.70
2022-09-30T03:20:40.360Z,6.37
2022-09-30T03:23:47.630Z,5.77
2022-09-30T03:26:41.088Z,8.03
2022-09-30T03:29:37.519Z,5.17
2022-09-30T03:32:42.770Z,7.30
2022-09-30T03:35:35.075Z,4.93
2022-09-30T03:38:34.024Z,9.13
2022-09-30T03:41:27.026Z,6.23
2022-09-30T03:44:20.581Z,5.17
2022-09-30T03:47:11.099Z,5.73
2022-09-30T03:50:01.973Z,5.37
2022-09-30T03:52:50.110Z,5.60
2022-09-30T03:55:47.910Z,5.57
2022-09-30T03:58:35.260Z,4.90
2022-09-30T04:01:23.254Z,7.40
2022-09-30T04:04:09.953Z,4.60
2022-09-30T04:06:57.879Z,7.00
2022-09-30T04:09:44.590Z,5.67
2022-09-30T04:12:31.455Z,5.23
2022-09-30T04:15:18.240Z,5.50
2022-09-30T04:18:05.970Z,4.47
2022-09-30T04:20:52.594Z,7.07
2022-09-30T04:23:42.732Z,4.77
2022-09-30T04:26:29.319Z,5.27
2022-09-30T04:29:16.394Z,5.37
2022-09-30T04:32:03.435Z,6.23
2022-09-30T04:34:50.334Z,4.13
2022-09-30T04:37:37.203Z,5.50
2022-09-30T04:40:26.333Z,4.87
2022-09-30T04:43:13.266Z,4.23
2022-09-30T04:46:00.264Z,7.20
2022-09-30T04:48:48.411Z,5.93
2022-09-30T04:51:36.014Z,6.07
2022-09-30T04:54:23.244Z,9.67
2022-09-30T04:57:11.159Z,5.10
2022-09-30T04:59:58.262Z,4.47
2022-09-30T05:02:45.873Z,7.13
2022-09-30T05:05:35.894Z,4.17
2022-09-30T05:08:23.619Z,6.80
2022-09-30T05:11:14.640Z,6.27
2022-09-30T05:14:04.389Z,8.13
2022-09-30T05:16:51.036Z,5.93
2022-09-30T05:19:37.779Z,5.23
2022-09-30T05:22:25.107Z,4.37
2022-09-30T05:25:11.974Z,7.63
2022-09-30T05:28:14.670Z,6.97
2022-09-30T05:31:07.203Z,5.67
2022-09-30T05:33:58.105Z,5.47
2022-09-30T05:36:45.374Z,7.43
2022-09-30T05:39:32.253Z,5.77
2022-09-30T05:42:19.836Z,5.70
2022-09-30T05:45:07.640Z,9.23
2022-09-30T05:47:56.280Z,4.33
2022-09-30T05:50:43.009Z,6.57
2022-09-30T05:53:31.998Z,6.47
2022-09-30T05:56:19.097Z,4.93
2022-09-30T05:59:05.937Z,5.87
2022-09-30T06:01:53.906Z,5.33
2022-09-30T06:04:42.214Z,12.10
2022-09-30T06:07:28.902Z,5.60
2022-09-30T06:10:15.668Z,5.67
2022-09-30T06:13:04.612Z,5.60
2022-09-30T06:15:58.122Z,7.47
2022-09-30T06:18:45.624Z,6.37
2022-09-30T06:21:33.909Z,4.13
2022-09-30T06:24:20.814Z,5.90
2022-09-30T06:27:07.461Z,6.80
2022-09-30T06:29:54.296Z,7.93
2022-09-30T06:32:41.083Z,5.67
2022-09-30T06:35:28.652Z,7.13
2022-09-30T06:38:17.299Z,8.10
2022-09-30T06:41:05.151Z,9.77
2022-09-30T06:44:00.410Z,6.87
2022-09-30T06:46:54.869Z,7.57
2022-09-30T06:49:49.099Z,6.87
2022-09-30T06:52:37.087Z,4.97
2022-09-30T06:55:27.074Z,5.33
2022-09-30T06:58:16.726Z,5.27
2022-09-30T07:01:05.887Z,4.53
2022-09-30T07:03:58.175Z,6.30
2022-09-30T07:06:45.195Z,6.73
2022-09-30T07:09:32.259Z,35.50
2022-09-30T07:12:20.492Z,6.53
2022-09-30T07:15:11.495Z,5.50
2022-09-30T07:18:01.516Z,4.77
2022-09-30T07:20:52.783Z,5.10
2022-09-30T07:23:48.037Z,4.00
2022-09-30T07:26:35.616Z,6.87
2022-09-30T07:29:23.652Z,7.13
2022-09-30T07:32:10.884Z,4.30
2022-09-30T07:34:58.031Z,7.00
2022-09-30T07:37:44.938Z,4.03
2022-09-30T07:40:31.650Z,3.63
2022-09-30T07:43:19.130Z,5.80
2022-09-30T07:46:09.378Z,3.93
2022-09-30T07:49:00.602Z,5.67
2022-09-30T07:51:47.637Z,8.73
2022-09-30T07:54:40.491Z,7.07
2022-09-30T07:57:31.470Z,10.80
2022-09-30T08:00:41.258Z,5.33
2022-09-30T08:03:26.804Z,8.17
2022-09-30T08:06:17.954Z,8.83
2022-09-30T08:09:05.051Z,6.63
2022-09-30T08:11:52.737Z,5.70
2022-09-30T08:14:39.427Z,7.50
2022-09-30T08:17:26.514Z,6.53
2022-09-30T08:20:18.778Z,6.70
2022-09-30T08:23:08.155Z,6.40
2022-09-30T08:26:02.496Z,7.27
2022-09-30T08:28:51.705Z,6.50
2022-09-30T08:31:38.966Z,6.40
2022-09-30T08:34:25.890Z,5.03
2022-09-30T08:37:14.306Z,6.63
2022-09-30T08:40:02.153Z,5.13
2022-09-30T08:43:03.623Z,5.13
2022-09-30T08:45:59.514Z,5.00
2022-09-30T08:48:53.966Z,4.17
2022-09-30T08:51:46.972Z,5.43
2022-09-30T08:54:40.230Z,4.03
2022-09-30T08:57:32.031Z,4.80
2022-09-30T09:00:20.329Z,4.80
2022-09-30T09:03:07.215Z,5.07
2022-09-30T09:06:01.765Z,4.25
2022-09-30T09:09:00.726Z,5.30
2022-09-30T09:12:01.844Z,4.90
2022-09-30T09:15:03.363Z,3.30
2022-09-30T09:18:25.263Z,3.13
2022-09-30T09:21:25.115Z,4.22
2022-09-30T09:24:17.015Z,5.03
2022-09-30T09:27:19.372Z,3.60
2022-09-30T09:30:08.998Z,3.60
2022-09-30T09:32:57.880Z,3.53
2022-09-30T09:35:51.446Z,4.97
2022-09-30T09:38:53.933Z,3.27
2022-09-30T09:41:47.675Z,4.37
2022-09-30T09:44:44.015Z,4.33
2022-09-30T09:47:30.999Z,5.43
2022-09-30T09:50:22.822Z,3.50
2022-09-30T09:53:35.080Z,2.53
2022-09-30T09:56:25.490Z,3.80
2022-09-30T09:59:19.749Z,3.53
2022-09-30T10:02:24.501Z,2.43
2022-09-30T10:05:26.203Z,3.87
2022-09-30T10:08:17.209Z,2.83
2022-09-30T10:11:06.571Z,3.27
2022-09-30T10:13:56.959Z,2.60
2022-09-30T10:16:43.942Z,2.07
2022-09-30T10:19:35.486Z,3.53
2022-09-30T10:22:28.733Z,3.07
2022-09-30T10:25:22.715Z,3.80
2022-09-30T10:28:24.892Z,3.27
2022-09-30T10:31:18.418Z,4.07
2022-09-30T10:34:12.870Z,4.00
2022-09-30T10:37:03.331Z,3.73
2022-09-30T10:39:58.935Z,4.53
2022-09-30T10:42:48.591Z,3.77
2022-09-30T10:45:41.338Z,14.03
2022-09-30T10:48:32.471Z,2.63
2022-09-30T10:51:25.973Z,3.20
2022-09-30T10:54:45.633Z,3.53
2022-09-30T10:57:35.411Z,2.03
2022-09-30T11:00:25.462Z,1.60
2022-09-30T11:03:15.940Z,2.77
2022-09-30T11:06:02.855Z,1.53
2022-09-30T11:08:56.716Z,3.13
2022-09-30T11:11:51.575Z,3.30
2022-09-30T11:14:45.779Z,2.13
2022-09-30T11:17:40.820Z,1.53
2022-09-30T11:20:33.336Z,3.00
2022-09-30T11:23:27.569Z,2.88
2022-09-30T11:26:22.892Z,2.53
2022-09-30T11:29:40.531Z,1.65
2022-09-30T11:32:40.028Z,2.90
2022-09-30T11:35:42.141Z,2.73
2022-09-30T11:38:51.741Z,1.53
2022-09-30T11:41:42.168Z,3.70
2022-09-30T11:44:35.282Z,1.63
2022-09-30T11:47:46.254Z,1.87
2022-09-30T11:50:48.651Z,3.13
2022-09-30T11:53:44.046Z,4.03
2022-09-30T11:56:40.241Z,1.80
2022-09-30T11:59:32.147Z,3.33
2022-09-30T12:02:32.466Z,2.13
2022-09-30T12:05:26.097Z,2.10
2022-09-30T12:08:19.169Z,2.13
2022-09-30T12:11:11.070Z,1.33
2022-09-30T12:14:04.839Z,0.80
2022-09-30T12:16:53.799Z,1.23
2022-09-30T12:19:45.482Z,1.33
2022-09-30T12:22:39.695Z,1.23
2022-09-30T12:25:31.264Z,1.60
2022-09-30T12:28:45.467Z,2.50
2022-09-30T12:31:52.716Z,0.83
2022-09-30T12:35:02.151Z,2.03
2022-09-30T12:38:03.137Z,1.70
2022-09-30T12:41:12.015Z,0.93
2022-09-30T12:44:42.117Z,1.57
2022-09-30T12:47:45.959Z,1.00
2022-09-30T12:50:41.371Z,0.63
2022-09-30T12:53:33.093Z,1.43
2022-09-30T12:56:20.548Z,2.00
2022-09-30T12:59:09.964Z,0.83
2022-09-30T13:02:00.236Z,2.60
2022-09-30T13:04:52.129Z,0.70
2022-09-30T13:08:25.675Z,0.60
2022-09-30T13:11:37.294Z,1.60
2022-09-30T13:14:36.317Z,1.13
2022-09-30T13:17:27.620Z,1.50
2022-09-30T13:20:47.949Z,2.37
2022-09-30T13:23:41.177Z,1.10
2022-09-30T13:26:51.809Z,1.37
2022-09-30T13:29:58.688Z,1.60
2022-09-30T13:32:51.511Z,0.87
2022-09-30T13:35:50.255Z,2.03
2022-09-30T13:38:41.510Z,1.73
2022-09-30T13:41:28.950Z,0.60
2022-09-30T13:44:21.718Z,0.60
2022-09-30T13:47:18.997Z,1.63
2022-09-30T13:50:16.169Z,0.67
2022-09-30T13:53:06.806Z,0.53
2022-09-30T13:55:56.418Z,0.47
2022-09-30T13:59:15.195Z,1.07
2022-09-30T14:02:33.831Z,1.73
2022-09-30T14:05:51.565Z,1.67
2022-09-30T14:08:52.946Z,2.57
2022-09-30T14:12:04.906Z,3.67
2022-09-30T14:15:10.671Z,3.00
2022-09-30T14:18:23.439Z,3.87
2022-09-30T14:21:26.981Z,5.07
2022-09-30T14:24:17.611Z,3.03
2022-09-30T14:27:34.484Z,5.67
2022-09-30T14:30:23.384Z,6.13
2022-09-30T14:33:24.226Z,4.63
2022-09-30T14:36:16.920Z,3.53
2022-09-30T14:39:04.281Z,3.70
2022-09-30T14:41:55.814Z,3.87
2022-09-30T14:44:44.102Z,4.00
2022-09-30T14:47:32.499Z,4.27
2022-09-30T14:50:21.770Z,4.23
2022-09-30T14:53:28.563Z,2.20
2022-09-30T14:56:22.022Z,4.43
2022-09-30T14:59:18.797Z,2.27
2022-09-30T15:02:18.425Z,2.70
2022-09-30T15:05:06.567Z,2.57
2022-09-30T15:07:54.705Z,2.00
2022-09-30T15:10:48.463Z,4.10
2022-09-30T15:13:36.150Z,3.03
2022-09-30T15:16:27.239Z,2.97
2022-09-30T15:19:21.159Z,2.93
2022-09-30T15:22:09.471Z,2.80
2022-09-30T15:24:58.178Z,1.93
2022-09-30T15:27:45.846Z,2.90
2022-09-30T15:30:33.205Z,1.43
2022-09-30T15:33:24.142Z,3.37
2022-09-30T15:36:17.237Z,2.40
2022-09-30T15:39:07.049Z,2.30
2022-09-30T15:41:53.915Z,1.10
2022-09-30T15:44:42.000Z,2.10
2022-09-30T15:47:57.694Z,1.40
2022-09-30T15:50:49.398Z,2.93
2022-09-30T15:53:48.778Z,1.83
2022-09-30T15:56:37.812Z,1.30
2022-09-30T15:59:24.842Z,1.77
2022-09-30T16:02:12.731Z,1.07
2022-09-30T16:05:02.084Z,2.23
2022-09-30T16:07:49.157Z,1.00
2022-09-30T16:10:39.656Z,2.03
2022-09-30T16:13:28.969Z,2.20
2022-09-30T16:16:22.652Z,3.63
2022-09-30T16:19:18.382Z,2.53
2022-09-30T16:22:05.133Z,11.30
2022-09-30T16:25:02.149Z,3.67
2022-09-30T16:27:57.687Z,1.77
2022-09-30T16:30:47.091Z,1.63
2022-09-30T16:33:38.162Z,0.70
2022-09-30T16:36:24.910Z,0.97
2022-09-30T16:39:13.774Z,3.27
2022-09-30T16:42:00.460Z,2.00
2022-09-30T16:44:49.859Z,2.03
2022-09-30T16:47:36.711Z,3.23
2022-09-30T16:50:30.833Z,0.83
2022-09-30T16:53:17.778Z,4.10
2022-09-30T16:56:04.925Z,3.73
2022-09-30T16:58:51.748Z,1.97
2022-09-30T17:01:40.018Z,3.33
2022-09-30T17:04:27.664Z,2.23
2022-09-30T17:07:15.838Z,1.87
2022-09-30T17:10:02.639Z,3.13
2022-09-30T17:12:50.953Z,2.30
2022-09-30T17:15:37.876Z,0.83
2022-09-30T17:18:30.018Z,2.57
2022-09-30T17:21:18.868Z,1.70
2022-09-30T17:24:05.994Z,2.10
2022-09-30T17:26:54.485Z,14.03
2022-09-30T17:29:42.609Z,10.83
2022-09-30T17:32:29.244Z,4.83
2022-09-30T17:35:17.681Z,8.47
2022-09-30T17:38:07.804Z,9.93
2022-09-30T17:41:12.227Z,8.87
2022-09-30T17:44:02.365Z,7.50
2022-09-30T17:46:49.395Z,5.70
2022-09-30T17:49:37.751Z,3.87
2022-09-30T17:52:25.954Z,3.87
2022-09-30T17:55:12.919Z,5.87
2022-09-30T17:57:59.820Z,3.37
2022-09-30T18:00:47.547Z,7.90
2022-09-30T18:03:34.545Z,11.83
2022-09-30T18:06:21.980Z,16.87
2022-09-30T18:09:11.370Z,15.77
2022-09-30T18:12:00.368Z,6.17
2022-09-30T18:14:47.357Z,4.50
2022-09-30T18:17:34.072Z,6.57
2022-09-30T18:20:24.924Z,6.37
2022-09-30T18:23:13.284Z,7.43
2022-09-30T18:26:01.710Z,8.90
2022-09-30T18:28:51.224Z,7.27
2022-09-30T18:31:39.421Z,7.27
2022-09-30T18:34:26.636Z,5.73
2022-09-30T18:37:13.774Z,4.80
2022-09-30T18:40:00.739Z,6.23
2022-09-30T18:42:49.358Z,5.73
2022-09-30T18:45:38.323Z,3.60
2022-09-30T18:48:26.230Z,5.37
2022-09-30T18:51:13.530Z,4.30
2022-09-30T18:54:02.022Z,4.90
2022-09-30T18:56:49.096Z,2.60
2022-09-30T18:59:37.241Z,3.63
2022-09-30T19:02:23.945Z,3.67
2022-09-30T19:05:11.459Z,5.83
2022-09-30T19:07:58.237Z,4.77
2022-09-30T19:10:44.771Z,3.93
2022-09-30T19:13:31.913Z,6.97
2022-09-30T19:16:20.158Z,4.23
2022-09-30T19:19:08.154Z,6.57
2022-09-30T19:22:00.245Z,5.77
2022-09-30T19:24:47.328Z,4.37
2022-09-30T19:27:36.116Z,4.87
2022-09-30T19:30:24.253Z,3.17
2022-09-30T19:33:12.142Z,6.30
2022-09-30T19:36:13.863Z,8.07
2022-09-30T19:39:12.227Z,3.63
2022-09-30T19:42:04.054Z,5.83
2022-09-30T19:44:51.950Z,4.77
2022-09-30T19:47:39.054Z,5.07
2022-09-30T19:50:27.252Z,4.83
2022-09-30T19:53:27.067Z,4.00
2022-09-30T19:56:19.109Z,7.27
2022-09-30T19:59:06.693Z,4.93
2022-09-30T20:01:53.380Z,4.27
2022-09-30T20:04:42.902Z,5.70
2022-09-30T20:07:31.710Z,5.97
2022-09-30T20:10:18.402Z,5.67
2022-09-30T20:13:05.242Z,7.53
2022-09-30T20:15:51.416Z,5.17
2022-09-30T20:18:39.837Z,5.03
2022-09-30T20:21:30.368Z,4.43
2022-09-30T20:24:20.998Z,5.60
2022-09-30T20:27:14.012Z,5.03
2022-09-30T20:30:02.081Z,4.43
2022-09-30T20:32:49.060Z,9.47
2022-09-30T20:35:36.904Z,5.80
2022-09-30T20:38:24.990Z,6.83
2022-09-30T20:41:15.486Z,12.37
2022-09-30T20:44:03.245Z,11.17
2022-09-30T20:46:49.726Z,28.20
2022-09-30T20:49:36.379Z,6.93
2022-09-30T20:52:23.245Z,16.43
2022-09-30T20:55:10.049Z,23.17
2022-09-30T20:57:58.258Z,49.07
2022-09-30T21:00:45.620Z,45.47
2022-09-30T21:03:36.103Z,41.17
2022-09-30T21:06:26.666Z,37.37
2022-09-30T21:09:13.646Z,50.03
2022-09-30T21:12:00.625Z,52.70
2022-09-30T21:14:49.150Z,27.10
2022-09-30T21:17:36.145Z,28.53
2022-09-30T21:20:22.905Z,63.87
2022-09-30T21:23:09.741Z,42.40
2022-09-30T21:25:59.750Z,52.70
2022-09-30T21:28:49.225Z,38.23
2022-09-30T21:31:39.383Z,22.07
2022-09-30T21:34:26.918Z,13.70
2022-09-30T21:37:13.898Z,19.20
2022-09-30T21:40:01.144Z,5.73
2022-09-30T21:42:48.122Z,4.43
2022-09-30T21:45:34.932Z,4.33
2022-09-30T21:48:23.407Z,7.60
2022-09-30T21:51:11.164Z,39.90
2022-09-30T21:53:58.318Z,14.83
2022-09-30T21:56:45.126Z,16.23
2022-09-30T21:59:32.024Z,4.63
2022-09-30T22:02:18.760Z,3.67
2022-09-30T22:05:07.606Z,6.67
2022-09-30T22:07:54.377Z,8.50
2022-09-30T22:10:44.504Z,14.43
2022-09-30T22:13:31.566Z,22.53
2022-09-30T22:16:19.828Z,16.73
2022-09-30T22:19:08.212Z,12.57
2022-09-30T22:21:56.720Z,23.60
2022-09-30T22:24:43.630Z,7.23
2022-09-30T22:27:31.851Z,12.13
2022-09-30T22:30:18.926Z,8.47
2022-09-30T22:33:23.325Z,3.23
2022-09-30T22:36:27.538Z,6.80
2022-09-30T22:39:15.487Z,10.43
2022-09-30T22:42:02.713Z,4.33
2022-09-30T22:44:49.673Z,11.40
2022-09-30T22:47:37.048Z,32.13
2022-09-30T22:50:25.235Z,10.07
2022-09-30T22:53:12.311Z,23.57
2022-09-30T22:56:04.882Z,30.37
2022-09-30T22:58:51.443Z,76.80
2022-09-30T23:01:38.384Z,18.23
2022-09-30T23:04:27.102Z,43.83
2022-09-30T23:07:13.664Z,72.80
2022-09-30T23:10:01.131Z,23.77
2022-09-30T23:12:51.899Z,6.30
2022-09-30T23:15:38.500Z,4.83
2022-09-30T23:18:25.183Z,3.53
2022-09-30T23:21:14.150Z,5.27
2022-09-30T23:24:01.215Z,1.73
2022-09-30T23:26:48.197Z,3.07
2022-09-30T23:29:36.318Z,2.60
2022-09-30T23:32:23.246Z,2.80
2022-09-30T23:35:13.116Z,2.63
2022-09-30T23:37:59.880Z,4.07
2022-09-30T23:40:47.593Z,5.57
2022-09-30T23:43:35.580Z,6.37
2022-09-30T23:46:24.075Z,3.80
2022-09-30T23:49:10.969Z,3.73
2022-09-30T23:51:58.009Z,6.23
2022-09-30T23:54:45.323Z,4.67
2022-09-30T23:57:33.154Z,2.77
